WAT251 KMIA-KBFI
Flight info
| Callsign | WAT251 |
|---|---|
| Flight time | N/A |
| Altitude | 30000 |
| Route | HURCN4 SMELZ Q116 JAWJA DCT PNTHA DCT KISTS/N0497F320 DCT BVO Q148 JUGIV DCT DBS DCT PDT CHINS5 |
| Aircraft | B77L/H-SDE1E2E3FGHIJ2J3J4J5M1RWXY/LB1D1 |
Departure
| Time | 2026-04-30 22:52 |
|---|---|
| Airport | Miami International Airport (KMIA) |
Arrival
| Time | N/A |
|---|---|
| Airport | King County International Airport - Boeing Field (KBFI) |
| Time | Latitude | Longitude | Altitude | Speed | Heading |
|---|---|---|---|---|---|
| 2026-04-30 22:07 | 25.79123 | -80.29160 | 21 ft | 0 kts | 210° |
| 2026-04-30 22:40 | 25.79124 | -80.29160 | 21 ft | 1 kts | 210° |
| 2026-04-30 22:41 | 25.79162 | -80.29135 | 21 ft | 2 kts | 210° |
| 2026-04-30 22:41 | 25.79188 | -80.29118 | 20 ft | 2 kts | 210° |
| 2026-04-30 22:42 | 25.79207 | -80.29085 | 20 ft | 0 kts | 300° |
| 2026-04-30 22:45 | 25.79216 | -80.29103 | 20 ft | 6 kts | 299° |
| 2026-04-30 22:45 | 25.79286 | -80.29241 | 19 ft | 12 kts | 300° |
| 2026-04-30 22:46 | 25.79387 | -80.29439 | 18 ft | 16 kts | 299° |
| 2026-04-30 22:47 | 25.79591 | -80.29845 | 18 ft | 11 kts | 300° |
| 2026-04-30 22:47 | 25.79669 | -80.29994 | 18 ft | 13 kts | 299° |
| 2026-04-30 22:48 | 25.79763 | -80.30178 | 18 ft | 12 kts | 300° |
| 2026-04-30 22:49 | 25.79793 | -80.30235 | 18 ft | 0 kts | 306° |
| 2026-04-30 22:49 | 25.79841 | -80.30255 | 18 ft | 10 kts | 14° |
| 2026-04-30 22:50 | 25.80078 | -80.29999 | 18 ft | 8 kts | 88° |
| 2026-04-30 22:51 | 25.80099 | -80.29399 | 18 ft | 102 kts | 87° |
| 2026-04-30 22:51 | 25.80208 | -80.26885 | 302 ft | 202 kts | 90° |
| 2026-04-30 22:52 | 25.80391 | -80.25281 | 1114 ft | 214 kts | 87° |
| 2026-04-30 22:52 | 25.80524 | -80.21848 | 2128 ft | 242 kts | 90° |
| 2026-04-30 22:53 | 25.80995 | -80.17891 | 3141 ft | 273 kts | 60° |
| 2026-04-30 22:53 | 25.83985 | -80.15540 | 4606 ft | 276 kts | 5° |
| 2026-04-30 22:53 | 25.85884 | -80.15535 | 5516 ft | 273 kts | 353° |
| 2026-04-30 22:54 | 25.89615 | -80.15919 | 7237 ft | 270 kts | 345° |
| 2026-04-30 22:55 | 25.95130 | -80.17721 | 9333 ft | 281 kts | 341° |
| 2026-04-30 22:55 | 25.98732 | -80.19518 | 10473 ft | 295 kts | 323° |
| 2026-04-30 22:56 | 26.01723 | -80.22901 | 11250 ft | 324 kts | 303° |
| 2026-04-30 22:56 | 26.03476 | -80.30405 | 13123 ft | 346 kts | 283° |
| 2026-04-30 22:57 | 26.04940 | -80.35651 | 13989 ft | 370 kts | 291° |
| 2026-04-30 22:57 | 26.06853 | -80.41122 | 15184 ft | 385 kts | 292° |
| 2026-04-30 22:58 | 26.08831 | -80.46669 | 16685 ft | 389 kts | 293° |
| 2026-04-30 22:59 | 26.12146 | -80.55026 | 18620 ft | 399 kts | 303° |
| 2026-04-30 22:59 | 26.18242 | -80.61417 | 20241 ft | 414 kts | 330° |